createdAt,value
2023-01-20T00:01:12.529Z,10.98
2023-01-20T00:03:41.135Z,11.07
2023-01-20T00:06:09.063Z,10.68
2023-01-20T00:08:36.509Z,10.90
2023-01-20T00:11:08.990Z,10.63
2023-01-20T00:13:36.780Z,10.10
2023-01-20T00:16:05.519Z,10.82
2023-01-20T00:18:33.584Z,11.65
2023-01-20T00:21:08.223Z,11.68
2023-01-20T00:23:36.086Z,12.00
2023-01-20T00:26:08.788Z,10.73
2023-01-20T00:28:37.043Z,10.48
2023-01-20T00:31:14.142Z,11.48
2023-01-20T00:33:41.536Z,9.88
2023-01-20T00:36:09.641Z,10.52
2023-01-20T00:38:37.245Z,9.77
2023-01-20T00:41:05.530Z,9.93
2023-01-20T00:43:32.859Z,9.13
2023-01-20T00:46:00.107Z,9.07
2023-01-20T00:48:27.589Z,9.55
2023-01-20T00:50:54.850Z,8.88
2023-01-20T00:53:22.109Z,7.05
2023-01-20T00:55:49.174Z,8.05
2023-01-20T00:58:16.442Z,8.68
2023-01-20T01:00:43.872Z,9.60
2023-01-20T01:03:11.000Z,9.90
2023-01-20T01:05:38.078Z,10.55
2023-01-20T01:08:05.367Z,11.00
2023-01-20T01:10:32.738Z,10.85
2023-01-20T01:13:01.394Z,9.50
2023-01-20T01:15:28.758Z,9.38
2023-01-20T01:17:57.501Z,8.25
2023-01-20T01:20:24.817Z,9.10
2023-01-20T01:22:52.087Z,9.88
2023-01-20T01:25:19.527Z,9.45
2023-01-20T01:27:46.632Z,9.40
2023-01-20T01:30:13.847Z,9.13
2023-01-20T01:32:40.954Z,8.82
2023-01-20T01:35:08.464Z,9.02
2023-01-20T01:37:35.589Z,8.65
2023-01-20T01:40:02.744Z,8.35
2023-01-20T01:42:29.837Z,8.02
2023-01-20T01:45:12.835Z,8.45
2023-01-20T01:48:05.906Z,8.02
2023-01-20T01:50:36.809Z,7.15
2023-01-20T01:53:05.071Z,8.55
2023-01-20T01:55:36.733Z,8.73
2023-01-20T01:58:06.354Z,9.30
2023-01-20T02:00:33.696Z,8.52
2023-01-20T02:03:01.112Z,8.30
2023-01-20T02:05:30.651Z,9.23
2023-01-20T02:07:58.760Z,9.65
2023-01-20T02:10:26.293Z,9.30
2023-01-20T02:12:54.161Z,8.82
2023-01-20T02:15:28.369Z,9.00
2023-01-20T02:18:30.472Z,8.38
2023-01-20T02:21:28.071Z,8.43
2023-01-20T02:24:00.983Z,7.75
2023-01-20T02:26:42.479Z,7.30
2023-01-20T02:29:09.545Z,7.80
2023-01-20T02:32:04.886Z,7.50
2023-01-20T02:34:37.542Z,6.93
2023-01-20T02:37:18.844Z,7.95
2023-01-20T02:39:55.932Z,6.63
2023-01-20T02:42:32.646Z,7.45
2023-01-20T02:45:15.305Z,7.13
2023-01-20T02:47:51.939Z,6.30
2023-01-20T02:50:49.055Z,6.50
2023-01-20T02:53:18.775Z,6.82
2023-01-20T02:55:52.105Z,6.90
2023-01-20T02:58:48.755Z,6.82
2023-01-20T03:01:48.836Z,7.05
2023-01-20T03:04:22.052Z,6.57
2023-01-20T03:06:53.113Z,7.05
2023-01-20T03:09:27.423Z,6.60
2023-01-20T03:12:04.546Z,6.45
2023-01-20T03:14:31.742Z,5.82
2023-01-20T03:16:58.856Z,6.70
2023-01-20T03:19:26.019Z,6.68
2023-01-20T03:21:53.183Z,6.28
2023-01-20T03:24:22.481Z,7.30
2023-01-20T03:26:49.755Z,6.20
2023-01-20T03:29:18.698Z,7.03
2023-01-20T03:31:51.399Z,6.75
2023-01-20T03:34:22.194Z,6.20
2023-01-20T03:36:50.296Z,6.90
2023-01-20T03:39:18.192Z,5.97
2023-01-20T03:42:07.414Z,6.97
2023-01-20T03:44:46.569Z,6.32
2023-01-20T03:47:21.812Z,6.45
2023-01-20T03:50:10.293Z,7.10
2023-01-20T03:52:55.717Z,7.78
2023-01-20T03:55:51.848Z,7.60
2023-01-20T03:58:32.398Z,7.80
2023-01-20T04:01:17.918Z,7.65
2023-01-20T04:03:48.866Z,6.78
2023-01-20T04:06:18.741Z,7.28
2023-01-20T04:08:57.003Z,6.70
2023-01-20T04:11:24.569Z,6.00
2023-01-20T04:13:51.882Z,6.75
2023-01-20T04:16:20.928Z,6.70
2023-01-20T04:18:50.750Z,6.40
2023-01-20T04:21:29.906Z,6.03
2023-01-20T04:24:26.802Z,6.55
2023-01-20T04:26:53.979Z,6.10
2023-01-20T04:29:21.107Z,6.00
2023-01-20T04:31:48.224Z,5.70
2023-01-20T04:34:16.422Z,5.65
2023-01-20T04:36:43.962Z,6.03
2023-01-20T04:39:11.087Z,5.45
2023-01-20T04:41:38.188Z,5.65
2023-01-20T04:44:05.342Z,5.38
2023-01-20T04:46:32.464Z,5.28
2023-01-20T04:48:59.763Z,5.03
2023-01-20T04:51:26.949Z,5.60
2023-01-20T04:53:58.522Z,5.75
2023-01-20T04:56:26.407Z,5.55
2023-01-20T04:58:53.682Z,5.30
2023-01-20T05:01:20.877Z,5.70
2023-01-20T05:03:48.110Z,6.55
2023-01-20T05:06:15.401Z,5.85
2023-01-20T05:08:42.476Z,6.10
2023-01-20T05:11:09.603Z,6.78
2023-01-20T05:13:39.388Z,6.22
2023-01-20T05:16:07.871Z,5.97
2023-01-20T05:18:35.503Z,6.10
2023-01-20T05:21:05.398Z,6.47
2023-01-20T05:23:32.478Z,6.15
2023-01-20T05:25:59.648Z,7.05
2023-01-20T05:28:26.725Z,10.50
2023-01-20T05:30:53.934Z,7.43
2023-01-20T05:33:21.107Z,7.07
2023-01-20T05:35:48.234Z,6.43
2023-01-20T05:38:15.297Z,7.55
2023-01-20T05:40:42.381Z,6.45
2023-01-20T05:43:10.707Z,6.22
2023-01-20T05:45:39.618Z,6.85
2023-01-20T05:48:06.728Z,7.00
2023-01-20T05:50:33.859Z,6.95
2023-01-20T05:53:00.967Z,7.32
2023-01-20T05:55:27.982Z,8.43
2023-01-20T05:57:55.040Z,7.95
2023-01-20T06:00:22.952Z,8.38
2023-01-20T06:02:50.101Z,6.82
2023-01-20T06:05:17.724Z,5.47
2023-01-20T06:07:45.227Z,5.55
2023-01-20T06:10:13.030Z,5.32
2023-01-20T06:12:40.149Z,8.82
2023-01-20T06:15:08.046Z,6.50
2023-01-20T06:17:35.308Z,8.70
2023-01-20T06:20:04.520Z,8.20
2023-01-20T06:22:31.541Z,5.97
2023-01-20T06:24:58.614Z,6.65
2023-01-20T06:27:25.651Z,6.38
2023-01-20T06:29:52.747Z,5.90
2023-01-20T06:32:19.942Z,6.57
2023-01-20T06:34:47.196Z,6.53
2023-01-20T06:37:14.255Z,6.10
2023-01-20T06:39:41.329Z,5.18
2023-01-20T06:42:08.423Z,5.45
2023-01-20T06:44:35.577Z,8.23
2023-01-20T06:47:03.300Z,6.55
2023-01-20T06:49:30.464Z,6.95
2023-01-20T06:51:57.543Z,5.22
2023-01-20T06:54:24.759Z,6.53
2023-01-20T06:56:51.904Z,6.95
2023-01-20T06:59:19.010Z,7.05
2023-01-20T07:01:46.240Z,15.60
2023-01-20T07:04:16.313Z,6.97
2023-01-20T07:06:43.452Z,9.23
2023-01-20T07:09:12.851Z,7.63
2023-01-20T07:11:40.835Z,7.60
2023-01-20T07:14:08.933Z,7.18
2023-01-20T07:16:36.951Z,7.45
2023-01-20T07:19:04.731Z,6.85
2023-01-20T07:21:32.376Z,6.63
2023-01-20T07:24:02.962Z,6.97
2023-01-20T07:26:30.777Z,5.95
2023-01-20T07:29:00.896Z,7.00
2023-01-20T07:31:31.546Z,6.15
2023-01-20T07:33:58.711Z,6.22
2023-01-20T07:36:25.893Z,6.35
2023-01-20T07:38:54.176Z,6.00
2023-01-20T07:41:22.383Z,7.60
2023-01-20T07:43:52.142Z,6.55
2023-01-20T07:46:19.819Z,6.50
2023-01-20T07:48:46.983Z,6.75
2023-01-20T07:51:15.938Z,7.30
2023-01-20T07:53:47.353Z,7.32
2023-01-20T07:56:17.397Z,7.07
2023-01-20T07:58:45.729Z,7.60
2023-01-20T08:01:25.306Z,8.18
2023-01-20T08:03:53.268Z,7.80
2023-01-20T08:06:22.550Z,8.35
2023-01-20T08:08:50.669Z,7.70
2023-01-20T08:11:19.860Z,6.80
2023-01-20T08:13:47.652Z,6.35
2023-01-20T08:16:16.941Z,6.85
2023-01-20T08:18:44.818Z,6.28
2023-01-20T08:21:29.774Z,6.45
2023-01-20T08:24:01.978Z,7.47
2023-01-20T08:26:30.256Z,6.68
2023-01-20T08:29:07.256Z,8.52
2023-01-20T08:31:35.078Z,10.05
2023-01-20T08:34:02.541Z,7.65
2023-01-20T08:36:37.134Z,8.07
2023-01-20T08:41:37.969Z,8.30
2023-01-20T08:44:07.147Z,8.98
2023-01-20T08:46:34.987Z,8.85
2023-01-20T08:49:02.633Z,9.63
2023-01-20T08:51:32.118Z,9.75
2023-01-20T08:53:59.617Z,11.63
2023-01-20T08:56:27.091Z,12.80
2023-01-20T08:58:55.984Z,12.27
2023-01-20T09:01:36.532Z,12.13
2023-01-20T09:04:07.173Z,13.25
2023-01-20T09:06:44.034Z,14.77
2023-01-20T09:09:11.971Z,17.52
2023-01-20T09:11:39.760Z,15.95
2023-01-20T09:14:06.936Z,16.55
2023-01-20T09:16:34.047Z,21.55
2023-01-20T09:19:01.181Z,16.75
2023-01-20T09:21:28.226Z,15.90
2023-01-20T09:23:55.286Z,17.00
2023-01-20T09:26:34.963Z,16.42
2023-01-20T09:29:10.092Z,16.92
2023-01-20T09:31:52.170Z,15.23
2023-01-20T09:34:24.753Z,16.90
2023-01-20T09:36:53.232Z,17.50
2023-01-20T09:39:39.791Z,17.38
2023-01-20T09:43:05.471Z,16.88
2023-01-20T09:45:41.255Z,15.82
2023-01-20T09:48:43.658Z,16.25
2023-01-20T09:51:43.064Z,16.42
2023-01-20T09:54:20.527Z,16.20
2023-01-20T09:56:49.674Z,17.77
2023-01-20T09:59:28.255Z,16.08
2023-01-20T10:02:00.539Z,17.98
2023-01-20T10:04:43.645Z,18.20
2023-01-20T10:07:24.920Z,16.85
2023-01-20T10:10:01.552Z,16.58
2023-01-20T10:12:38.041Z,17.63
2023-01-20T10:15:28.426Z,17.65
2023-01-20T10:18:05.657Z,17.10
2023-01-20T10:20:39.637Z,16.90
2023-01-20T10:23:29.699Z,17.60
2023-01-20T10:26:22.003Z,17.20
2023-01-20T10:28:59.641Z,16.55
2023-01-20T10:31:29.532Z,17.30
2023-01-20T10:34:02.080Z,17.05
2023-01-20T10:36:31.450Z,18.45
2023-01-20T10:39:09.633Z,18.80
2023-01-20T10:41:49.698Z,17.95
2023-01-20T10:44:17.189Z,17.90
2023-01-20T10:47:12.262Z,19.52
2023-01-20T10:50:08.023Z,19.15
2023-01-20T10:53:22.420Z,18.95
2023-01-20T10:55:57.853Z,17.48
2023-01-20T10:58:26.776Z,18.23
2023-01-20T11:00:54.873Z,16.30
2023-01-20T11:03:23.604Z,15.63
2023-01-20T11:05:52.858Z,15.57
2023-01-20T11:08:23.769Z,16.92
2023-01-20T11:10:55.536Z,16.73
2023-01-20T11:13:23.172Z,15.25
2023-01-20T11:15:55.515Z,15.55
2023-01-20T11:18:31.783Z,15.30
2023-01-20T11:21:08.254Z,16.30
2023-01-20T11:23:40.556Z,15.82
2023-01-20T11:26:29.286Z,17.70
2023-01-20T11:29:10.200Z,16.42
2023-01-20T11:31:45.560Z,16.90
2023-01-20T11:34:23.150Z,20.90
2023-01-20T11:36:52.830Z,19.05
2023-01-20T11:39:33.819Z,22.02
2023-01-20T11:42:18.414Z,17.85
2023-01-20T11:44:51.250Z,19.13
2023-01-20T11:47:31.404Z,19.23
2023-01-20T11:50:04.603Z,18.88
2023-01-20T11:52:38.364Z,18.67
2023-01-20T11:55:09.315Z,17.67
2023-01-20T11:57:44.914Z,18.60
2023-01-20T12:00:33.240Z,19.65
2023-01-20T12:03:04.662Z,20.10
2023-01-20T12:05:49.095Z,19.10
2023-01-20T12:08:29.422Z,20.67
2023-01-20T12:11:01.043Z,18.85
2023-01-20T12:13:52.797Z,19.00
2023-01-20T12:16:20.078Z,21.08
2023-01-20T12:19:01.695Z,17.80
2023-01-20T12:21:41.462Z,17.92
2023-01-20T12:24:53.375Z,19.77
2023-01-20T12:27:28.090Z,18.88
2023-01-20T12:30:04.640Z,18.25
2023-01-20T12:32:33.553Z,19.38
2023-01-20T12:35:04.861Z,17.70
2023-01-20T12:37:55.824Z,17.20
2023-01-20T12:40:41.353Z,16.42
2023-01-20T12:43:50.049Z,18.10
2023-01-20T12:46:40.793Z,16.95
2023-01-20T12:49:19.046Z,15.73
2023-01-20T12:51:54.480Z,15.27
2023-01-20T12:54:21.537Z,16.35
2023-01-20T12:57:17.863Z,16.17
2023-01-20T13:00:01.390Z,18.38
2023-01-20T13:02:38.133Z,17.70
2023-01-20T13:05:16.914Z,19.23
2023-01-20T13:07:58.501Z,19.17
2023-01-20T13:10:42.648Z,17.42
2023-01-20T13:13:19.005Z,17.45
2023-01-20T13:16:22.004Z,17.40
2023-01-20T13:18:56.635Z,18.63
2023-01-20T13:23:52.109Z,19.25
2023-01-20T13:26:19.789Z,19.13
2023-01-20T13:28:55.071Z,17.60
2023-01-20T13:31:37.093Z,18.42
2023-01-20T13:34:22.464Z,16.90
2023-01-20T13:37:04.886Z,16.98
2023-01-20T13:39:40.793Z,18.55
2023-01-20T13:42:49.680Z,20.83
2023-01-20T13:45:20.316Z,19.63
2023-01-20T13:47:59.332Z,19.55
2023-01-20T13:50:35.079Z,19.35
2023-01-20T13:53:12.377Z,20.05
2023-01-20T13:55:45.092Z,18.98
2023-01-20T13:58:15.756Z,18.75
2023-01-20T14:00:44.085Z,18.00
2023-01-20T14:03:19.946Z,20.33
2023-01-20T14:05:59.182Z,18.55
2023-01-20T14:08:29.271Z,17.70
2023-01-20T14:11:17.801Z,18.52
2023-01-20T14:13:56.505Z,17.92
2023-01-20T14:16:28.075Z,18.15
2023-01-20T14:18:58.386Z,19.40
2023-01-20T14:21:28.367Z,18.17
2023-01-20T14:23:55.669Z,18.83
2023-01-20T14:26:28.141Z,19.50
2023-01-20T14:29:03.377Z,18.90
2023-01-20T14:31:44.054Z,21.40
2023-01-20T14:34:33.236Z,22.60
2023-01-20T14:37:19.116Z,20.52
2023-01-20T14:39:49.955Z,20.63
2023-01-20T14:42:22.240Z,23.92
2023-01-20T14:44:52.006Z,23.05
2023-01-20T14:47:22.036Z,22.70
2023-01-20T14:49:51.352Z,23.42
2023-01-20T14:52:30.302Z,22.45
2023-01-20T14:54:58.048Z,23.30
2023-01-20T14:57:28.226Z,23.95
2023-01-20T15:00:10.413Z,23.60
2023-01-20T15:02:38.819Z,27.77
2023-01-20T15:05:30.925Z,25.80
2023-01-20T15:08:25.230Z,27.35
2023-01-20T15:11:31.624Z,27.65
2023-01-20T15:14:01.667Z,23.85
2023-01-20T15:16:43.499Z,26.00
2023-01-20T15:19:32.046Z,23.95
2023-01-20T15:22:20.487Z,26.77
2023-01-20T15:24:48.034Z,26.23
2023-01-20T15:27:31.731Z,25.80
2023-01-20T15:30:00.110Z,23.00
2023-01-20T15:32:27.264Z,24.10
2023-01-20T15:34:54.330Z,23.67
2023-01-20T15:37:21.493Z,23.63
2023-01-20T15:39:48.557Z,25.67
2023-01-20T15:42:16.278Z,23.45
2023-01-20T15:44:43.362Z,23.27
2023-01-20T15:47:21.190Z,24.52
2023-01-20T15:49:48.656Z,27.02
2023-01-20T15:52:17.475Z,24.98
2023-01-20T15:54:45.063Z,24.75
2023-01-20T15:57:17.202Z,26.10
2023-01-20T15:59:49.834Z,26.33
2023-01-20T16:02:23.199Z,25.30
2023-01-20T16:04:50.801Z,26.67
2023-01-20T16:07:20.057Z,26.33
2023-01-20T16:09:47.461Z,26.58
2023-01-20T16:12:16.672Z,26.20
2023-01-20T16:14:45.295Z,27.73
2023-01-20T16:17:15.334Z,27.05
2023-01-20T16:19:42.698Z,26.80
2023-01-20T16:22:10.814Z,26.42
2023-01-20T16:24:38.320Z,25.73
2023-01-20T16:27:18.329Z,27.45
2023-01-20T16:29:45.700Z,26.75
2023-01-20T16:32:16.639Z,27.27
2023-01-20T16:34:44.474Z,26.65
2023-01-20T16:37:14.684Z,28.48
2023-01-20T16:39:41.958Z,27.85
2023-01-20T16:42:13.995Z,29.92
2023-01-20T16:44:41.526Z,30.58
2023-01-20T16:47:08.847Z,28.30
2023-01-20T16:49:36.263Z,27.10
2023-01-20T16:52:03.980Z,27.75
2023-01-20T16:54:31.230Z,24.95
2023-01-20T16:56:58.519Z,27.83
2023-01-20T16:59:26.174Z,26.60
2023-01-20T17:01:53.325Z,24.27
2023-01-20T17:04:20.522Z,23.50
2023-01-20T17:06:47.656Z,23.25
2023-01-20T17:09:14.806Z,22.90
2023-01-20T17:11:42.383Z,24.25
2023-01-20T17:14:11.536Z,22.10
2023-01-20T17:16:39.716Z,23.25
2023-01-20T17:19:07.093Z,22.67
2023-01-20T17:21:39.097Z,21.77
2023-01-20T17:24:08.181Z,21.65
2023-01-20T17:26:37.583Z,20.42
2023-01-20T17:29:05.838Z,20.35
2023-01-20T17:31:36.748Z,22.05
2023-01-20T17:34:05.842Z,22.75
2023-01-20T17:36:35.261Z,20.95
2023-01-20T17:39:07.976Z,21.73
2023-01-20T17:41:35.713Z,22.83
2023-01-20T17:44:04.526Z,28.52
2023-01-20T17:46:33.062Z,30.23
2023-01-20T17:49:08.409Z,24.52
2023-01-20T17:51:35.892Z,22.52
2023-01-20T17:54:05.338Z,22.95
2023-01-20T17:56:33.399Z,22.50
2023-01-20T17:59:00.758Z,23.88
2023-01-20T18:01:30.788Z,24.08
2023-01-20T18:03:59.882Z,23.10
2023-01-20T18:06:28.912Z,23.50
2023-01-20T18:08:58.678Z,23.52
2023-01-20T18:11:29.136Z,24.63
2023-01-20T18:13:58.926Z,23.63
2023-01-20T18:16:32.210Z,23.70
2023-01-20T18:19:00.160Z,23.60
2023-01-20T18:21:34.269Z,25.83
2023-01-20T18:24:02.977Z,25.75
2023-01-20T18:26:32.941Z,25.63
2023-01-20T18:29:02.817Z,28.00
2023-01-20T18:31:34.408Z,25.85
2023-01-20T18:34:05.417Z,27.52
2023-01-20T18:36:39.586Z,25.35
2023-01-20T18:39:13.502Z,29.98
2023-01-20T18:41:41.605Z,29.20
2023-01-20T18:44:09.721Z,27.83
2023-01-20T18:46:37.536Z,28.00
2023-01-20T18:49:08.573Z,26.80
2023-01-20T18:51:37.146Z,28.55
2023-01-20T18:54:10.687Z,32.20
2023-01-20T18:56:39.164Z,27.60
2023-01-20T18:59:08.009Z,30.00
2023-01-20T19:01:42.038Z,32.03
2023-01-20T19:04:12.719Z,26.83
2023-01-20T19:06:43.272Z,27.42
2023-01-20T19:09:12.307Z,25.63
2023-01-20T19:11:42.703Z,26.52
2023-01-20T19:14:14.667Z,24.50
2023-01-20T19:16:45.677Z,25.23
2023-01-20T19:19:14.318Z,24.98
2023-01-20T19:21:43.979Z,25.08
2023-01-20T19:24:18.929Z,24.52
2023-01-20T19:26:47.113Z,26.60
2023-01-20T19:29:17.670Z,25.92
2023-01-20T19:31:46.002Z,23.73
2023-01-20T19:34:13.776Z,24.00
2023-01-20T19:36:42.375Z,24.48
2023-01-20T19:39:10.551Z,27.52
2023-01-20T19:41:39.608Z,28.25
2023-01-20T19:44:08.067Z,26.55
2023-01-20T19:46:41.033Z,26.30
2023-01-20T19:49:09.953Z,25.63
2023-01-20T19:51:39.382Z,28.10
2023-01-20T19:54:09.129Z,26.02
2023-01-20T19:56:37.162Z,24.33
2023-01-20T19:59:08.900Z,23.83
2023-01-20T20:01:38.429Z,22.77
2023-01-20T20:04:21.144Z,21.95
2023-01-20T20:06:49.195Z,20.75
2023-01-20T20:09:19.919Z,22.13
2023-01-20T20:11:50.284Z,22.63
2023-01-20T20:14:20.749Z,21.50
2023-01-20T20:16:49.603Z,19.98
2023-01-20T20:19:19.578Z,20.42
2023-01-20T20:21:49.777Z,21.08
2023-01-20T20:24:20.583Z,21.30
2023-01-20T20:26:48.845Z,20.70
2023-01-20T20:29:21.849Z,24.27
2023-01-20T20:31:51.721Z,23.27
2023-01-20T20:34:20.232Z,25.75
2023-01-20T20:36:48.850Z,25.80
2023-01-20T20:39:18.635Z,25.63
2023-01-20T20:41:49.493Z,23.08
2023-01-20T20:44:17.475Z,23.92
2023-01-20T20:46:45.551Z,23.52
2023-01-20T20:49:18.579Z,23.02
2023-01-20T20:51:46.647Z,24.45
2023-01-20T20:54:17.652Z,22.92
2023-01-20T20:56:46.117Z,22.90
2023-01-20T20:59:14.154Z,22.40
2023-01-20T21:01:42.215Z,23.63
2023-01-20T21:04:12.141Z,22.73
2023-01-20T21:06:39.991Z,24.73
2023-01-20T21:09:08.573Z,21.80
2023-01-20T21:11:38.368Z,26.15
2023-01-20T21:14:07.755Z,24.60
2023-01-20T21:16:35.482Z,23.05
2023-01-20T21:19:03.904Z,23.83
2023-01-20T21:21:31.293Z,25.38
2023-01-20T21:24:01.574Z,24.33
2023-01-20T21:26:30.619Z,22.40
2023-01-20T21:29:03.061Z,22.92
2023-01-20T21:31:31.746Z,22.38
2023-01-20T21:34:00.866Z,23.88
2023-01-20T21:36:30.371Z,23.40
2023-01-20T21:38:59.271Z,23.90
2023-01-20T21:41:26.601Z,24.50
2023-01-20T21:44:12.188Z,24.40
2023-01-20T21:46:40.834Z,25.50
2023-01-20T21:49:29.624Z,25.13
2023-01-20T21:52:15.941Z,27.83
2023-01-20T21:54:45.518Z,30.83
2023-01-20T21:57:14.679Z,27.77
2023-01-20T21:59:43.315Z,26.40
2023-01-20T22:02:12.726Z,25.77
2023-01-20T22:04:40.267Z,25.95
2023-01-20T22:07:07.619Z,26.73
2023-01-20T22:09:34.720Z,27.42
2023-01-20T22:12:01.886Z,27.42
2023-01-20T22:14:29.006Z,27.23
2023-01-20T22:16:56.118Z,26.77
2023-01-20T22:19:23.287Z,28.95
2023-01-20T22:21:50.552Z,27.85
2023-01-20T22:24:18.100Z,28.80
2023-01-20T22:26:51.426Z,32.17
2023-01-20T22:29:19.397Z,33.70
2023-01-20T22:31:47.553Z,29.77
2023-01-20T22:34:14.796Z,28.45
2023-01-20T22:36:42.035Z,27.77
2023-01-20T22:39:12.125Z,27.83
2023-01-20T22:41:39.521Z,28.27
2023-01-20T22:44:06.829Z,29.65
2023-01-20T22:46:34.452Z,28.52
2023-01-20T22:49:01.515Z,30.20
2023-01-20T22:51:30.088Z,28.33
2023-01-20T22:54:00.030Z,29.35
2023-01-20T22:56:29.621Z,28.02
2023-01-20T22:58:57.880Z,29.00
2023-01-20T23:01:31.731Z,28.90
2023-01-20T23:04:01.710Z,30.55
2023-01-20T23:06:33.143Z,30.20
2023-01-20T23:09:07.149Z,28.60
2023-01-20T23:11:36.653Z,30.23
2023-01-20T23:14:03.955Z,27.88
2023-01-20T23:16:31.190Z,29.40
2023-01-20T23:18:58.510Z,29.35
2023-01-20T23:21:26.267Z,29.63
2023-01-20T23:23:56.081Z,28.95
2023-01-20T23:26:28.988Z,29.52
2023-01-20T23:28:56.578Z,30.33
2023-01-20T23:31:25.434Z,30.10
2023-01-20T23:33:54.485Z,28.70
2023-01-20T23:36:24.163Z,28.33
2023-01-20T23:38:54.226Z,29.80
2023-01-20T23:41:21.610Z,30.67
2023-01-20T23:43:49.133Z,28.80
2023-01-20T23:46:16.303Z,29.92
2023-01-20T23:48:46.852Z,29.98
2023-01-20T23:51:15.484Z,30.30
2023-01-20T23:53:43.520Z,30.88
2023-01-20T23:56:17.082Z,29.77
2023-01-20T23:58:44.529Z,31.43
